African Leopard — 3FQB4 — position and weather

sailwx.info

Track history (hours):
 
Tides and Currents Weather Stations Pressure Air Temp Water Temp Dewpoint Dewpoint Depression Visibility Wind Speed Wind Dir Waves Ship Positions

African Leopard

Last reported at 2017-Sep-09 09:46 UTC. Time now 2017-Sep-24 21:08 UTC.
Position N 25°32' W 016°03'.
Warning: this ship's position is 15 days out of date.

Length 199 m; draft 9.9 m.

Type: Cargo ship. MMSI: 374880000.

Date/timePositionNaut miles runAvg speedWind from/ knotsBaromVisibWave heightAir tempDewpointWater temp
2017-Sep-09 09:46N 25°32' W 016°03'514.2
2017-Sep-09 09:25N 25°36' W 015°60'1314.3
2017-Sep-09 08:29N 25°46' W 015°50'1414.4
2017-Sep-09 07:30N 25°57' W 015°39'914.4
2017-Sep-09 06:51N 26°04' W 015°33'1014.9
2017-Sep-09 06:09N 26°12' W 015°26'3014.8
2017-Sep-09 04:09N 26°34' W 015°03'415.0
2017-Sep-09 03:51N 26°37' W 014°60'1714.9
2017-Sep-09 02:42N 26°50' W 014°47'514.3
2017-Sep-09 02:22N 26°53' W 014°43'513.9
2017-Sep-09 01:58N 26°57' W 014°39'713.9
2017-Sep-09 01:28N 27°03' W 014°34'1014.0
2017-Sep-09 00:46N 27°10' W 014°27'514.3
2017-Sep-09 00:24N 27°14' W 014°23'514.1
2017-Sep-09 00:01N 27°18' W 014°19'713.9
2017-Sep-08 23:30N 27°23' W 014°13'714.0
2017-Sep-08 23:00N 27°29' W 014°08'714.1
2017-Sep-08 22:30N 27°34' W 014°03'714.3
2017-Sep-08 22:00N 27°39' W 013°58'714.4
2017-Sep-08 21:30N 27°45' W 013°52'714.5
2017-Sep-08 21:00N 27°50' W 013°47'714.4
2017-Sep-08 20:30N 27°56' W 013°42'714.6
2017-Sep-08 20:00N 28°02' W 013°37'714.5
2017-Sep-08 19:30N 28°08' W 013°32'714.2
2017-Sep-08 19:00N 28°13' W 013°28'714.2
2017-Sep-08 18:30N 28°19' W 013°23'714.1
2017-Sep-08 17:59N 28°26' W 013°19'713.7
2017-Sep-08 17:30N 28°31' W 013°14'714.2
2017-Sep-08 17:01N 28°37' W 013°10'814.6
2017-Sep-08 16:27N 28°43' W 013°05'614.3
2017-Sep-08 16:01N 28°49' W 013°01'714.2
2017-Sep-08 15:30N 28°55' W 012°56'713.9
2017-Sep-08 15:00N 29°00' W 012°52'713.7
2017-Sep-08 14:30N 29°06' W 012°47'713.8
2017-Sep-08 14:00N 29°12' W 012°43'713.6
2017-Sep-08 13:30N 29°17' W 012°38'713.5
2017-Sep-08 13:00N 29°23' W 012°34'813.7
2017-Sep-08 12:26N 29°29' W 012°29'6113.7
2017-Sep-08 07:57N 30°20' W 011°49'713.6
2017-Sep-08 07:28N 30°26' W 011°45'714.2
2017-Sep-08 07:00N 30°31' W 011°41'2714.2
2017-Sep-08 05:07N 30°53' W 011°23'213.9
2017-Sep-08 05:00N 30°55' W 011°22'1113.9
2017-Sep-08 04:14N 31°04' W 011°15'313.9
2017-Sep-08 04:00N 31°06' W 011°13'714.0
2017-Sep-08 03:29N 31°12' W 011°08'813.7
2017-Sep-08 02:56N 31°19' W 011°03'613.8
2017-Sep-08 02:30N 31°23' W 010°59'813.8
2017-Sep-08 01:55N 31°30' W 010°54'1114.1
2017-Sep-08 01:09N 31°39' W 010°47'314.2
2017-Sep-08 00:57N 31°41' W 010°45'614.3
2017-Sep-08 00:30N 31°47' W 010°41'814.2
2017-Sep-07 23:56N 31°53' W 010°35'614.3
2017-Sep-07 23:30N 31°59' W 010°31'2814.4
2017-Sep-07 21:34N 32°19' W 010°09'114.8
2017-Sep-07 21:31N 32°20' W 010°09'1214.6
2017-Sep-07 20:42N 32°29' W 009°59'314.8
2017-Sep-07 20:29N 32°31' W 009°57'2714.9
2017-Sep-07 18:39N 32°52' W 009°35'214.8
2017-Sep-07 18:30N 32°53' W 009°33'814.9
2017-Sep-07 18:00N 32°59' W 009°27'815.1
2017-Sep-07 17:30N 33°04' W 009°21'714.9
2017-Sep-07 17:00N 33°10' W 009°15'814.7
2017-Sep-07 16:29N 33°16' W 009°09'21014.1
2017-Sep-07 01:34N 35°52' W 006°19'1413.3
2017-Sep-07 00:29N 35°57' W 006°03'715.5
2017-Sep-07 00:00N 35°57' W 005°53'816.3
2017-Sep-06 23:30N 35°57' W 005°43'815.2
2017-Sep-06 23:00N 35°58' W 005°34'713.2
2017-Sep-06 22:30N 35°60' W 005°26'611.1
2017-Sep-06 22:00N 36°05' W 005°23'3 5.9
2017-Sep-06 21:30N 36°08' W 005°22'0 0.5
2017-Sep-06 20:55N 36°08' W 005°22'0 0.3
2017-Sep-06 20:28N 36°08' W 005°22'0 0.1
2017-Sep-06 19:58N 36°08' W 005°22'0 0.0
2017-Sep-06 19:22N 36°08' W 005°22'0 0.0
2017-Sep-06 17:19N 36°08' W 005°22'0 0.0
2017-Sep-06 16:58N 36°08' W 005°22'0 0.0
2017-Sep-06 16:19N 36°08' W 005°22'0 0.0
2017-Sep-06 15:07N 36°08' W 005°22'0 0.3
2017-Sep-06 14:58N 36°08' W 005°22'0 0.0
2017-Sep-06 13:49N 36°08' W 005°22'0 0.1
2017-Sep-06 13:25N 36°08' W 005°22'0 0.2
2017-Sep-06 11:37N 36°08' W 005°22'0 0.0
2017-Sep-06 11:13N 36°08' W 005°22'0 0.1
2017-Sep-06 10:55N 36°08' W 005°22'0 0.3
2017-Sep-06 10:19N 36°08' W 005°22'0 0.1
2017-Sep-06 09:34N 36°08' W 005°22'0 0.1
2017-Sep-06 09:28N 36°08' W 005°22'0 0.1
2017-Sep-06 08:13N 36°08' W 005°22'0 0.0
2017-Sep-06 07:28N 36°08' W 005°22'2 2.7
2017-Sep-06 06:47N 36°06' W 005°22'2 6.3
2017-Sep-06 06:30N 36°05' W 005°20'4 7.9
2017-Sep-06 06:00N 36°06' W 005°15'3 6.9
2017-Sep-06 05:30N 36°07' W 005°11'0 0.1
2017-Sep-06 05:00N 36°07' W 005°11'0 0.1
2017-Sep-06 04:27N 36°07' W 005°11'0 0.4
2017-Sep-06 04:00N 36°07' W 005°11'0 0.6
2017-Sep-06 03:30N 36°07' W 005°11'0 0.6
2017-Sep-06 02:58N 36°08' W 005°11'1 2.1
2017-Sep-06 02:29N 36°07' W 005°12'3 6.3
2017-Sep-06 02:00N 36°06' W 005°08'25813.3
2017-Sep-05 06:34N 36°41' E 000°09'313.9
2017-Sep-05 06:20N 36°41' E 000°13'413.9
2017-Sep-05 06:00N 36°42' E 000°19'714.0
2017-Sep-05 05:30N 36°43' E 000°27'714.1
2017-Sep-05 05:00N 36°44' E 000°36'714.0
2017-Sep-05 04:29N 36°46' E 000°45'714.3
2017-Sep-05 04:01N 36°48' E 000°53'914.2
2017-Sep-05 03:22N 36°50' E 001°04'714.5
2017-Sep-05 02:54N 36°51' E 001°12'615.1
2017-Sep-05 02:30N 36°52' E 001°20'1114.6
2017-Sep-05 01:44N 36°54' E 001°34'514.5
2017-Sep-05 01:25N 36°55' E 001°39'2414.3
2017-Sep-04 23:44N 37°00' E 002°09'314.1
2017-Sep-04 23:30N 37°01' E 002°13'713.8
2017-Sep-04 23:00N 37°02' E 002°21'1013.8
2017-Sep-04 22:17N 37°04' E 002°33'1113.5
2017-Sep-04 21:29N 37°07' E 002°46'6113.7
2017-Sep-04 17:01N 37°14' E 004°03'114.7
2017-Sep-04 16:59N 37°14' E 004°03'714.6
2017-Sep-04 16:30N 37°15' E 004°12'714.5
2017-Sep-04 16:00N 37°16' E 004°21'714.2
2017-Sep-04 15:30N 37°17' E 004°30'714.1
2017-Sep-04 15:00N 37°17' E 004°39'814.2
2017-Sep-04 14:28N 37°18' E 004°48'714.4
2017-Sep-04 14:00N 37°19' E 004°57'2714.3
2017-Sep-04 12:06N 37°22' E 005°31'314.5
2017-Sep-04 11:52N 37°23' E 005°35'37713.0
2017-Sep-03 06:49N 36°45' E 013°24'412.4
2017-Sep-03 06:30N 36°43' E 013°29'612.5
2017-Sep-03 06:00N 36°41' E 013°36'612.5
2017-Sep-03 05:30N 36°39' E 013°44'612.6
2017-Sep-03 05:00N 36°37' E 013°51'612.6
2017-Sep-03 04:30N 36°35' E 013°59'612.5
2017-Sep-03 04:00N 36°34' E 014°06'612.5
2017-Sep-03 03:30N 36°33' E 014°14'612.4
2017-Sep-03 03:00N 36°31' E 014°21'612.4
2017-Sep-03 02:30N 36°29' E 014°28'612.5
2017-Sep-03 02:00N 36°28' E 014°36'612.7
2017-Sep-03 01:30N 36°27' E 014°44'1513.3
2017-Sep-03 00:20N 36°27' E 015°03'513.8
2017-Sep-03 00:00N 36°26' E 015°09'713.9
2017-Sep-02 23:30N 36°26' E 015°17'8213.9
2017-Sep-02 17:38N 36°21' E 016°59'213.4
2017-Sep-02 17:30N 36°21' E 017°01'3113.7
2017-Sep-02 15:14N 36°19' E 017°39'1013.9
2017-Sep-02 14:30N 36°18' E 017°52'713.7
2017-Sep-02 14:00N 36°18' E 018°00'713.5
2017-Sep-02 13:30N 36°17' E 018°09'713.5
2017-Sep-02 13:00N 36°17' E 018°17'713.7
2017-Sep-02 12:30N 36°17' E 018°26'713.8
2017-Sep-02 12:00N 36°16' E 018°34'713.8
2017-Sep-02 11:28N 36°16' E 018°43'714.0
2017-Sep-02 11:01N 36°15' E 018°51'1214.3
2017-Sep-02 10:11N 36°15' E 019°06'314.5
2017-Sep-02 09:58N 36°14' E 019°10'1214.5
2017-Sep-02 09:09N 36°14' E 019°24'414.2
2017-Sep-02 08:52N 36°13' E 019°29'714.2
2017-Sep-02 08:24N 36°12' E 019°38'614.1
2017-Sep-02 08:00N 36°12' E 019°44'713.9
2017-Sep-02 07:30N 36°12' E 019°53'713.9
2017-Sep-02 07:00N 36°12' E 020°02'814.0
2017-Sep-02 06:27N 36°11' E 020°11'  
Track history (hours):
 
Tides and Currents Weather Stations Pressure Air Temp Water Temp Dewpoint Dewpoint Depression Visibility Wind Speed Wind Dir Waves Ship Positions

African Leopard

Last reported at 2017-Sep-09 09:46 UTC. Time now 2017-Sep-24 21:08 UTC.
Position N 25°32' W 016°03'.
Warning: this ship's position is 15 days out of date.

Length 199 m; draft 9.9 m.

Type: Cargo ship. MMSI: 374880000.

Date/timePositionNaut miles runAvg speedWind from/ knotsBaromVisibWave heightAir tempDewpointWater temp
2017-Sep-09 09:46N 25°32' W 016°03'514.2
2017-Sep-09 09:25N 25°36' W 015°60'1314.3
2017-Sep-09 08:29N 25°46' W 015°50'1414.4
2017-Sep-09 07:30N 25°57' W 015°39'914.4
2017-Sep-09 06:51N 26°04' W 015°33'1014.9
2017-Sep-09 06:09N 26°12' W 015°26'3014.8
2017-Sep-09 04:09N 26°34' W 015°03'415.0
2017-Sep-09 03:51N 26°37' W 014°60'1714.9
2017-Sep-09 02:42N 26°50' W 014°47'514.3
2017-Sep-09 02:22N 26°53' W 014°43'513.9
2017-Sep-09 01:58N 26°57' W 014°39'713.9
2017-Sep-09 01:28N 27°03' W 014°34'1014.0
2017-Sep-09 00:46N 27°10' W 014°27'514.3
2017-Sep-09 00:24N 27°14' W 014°23'514.1
2017-Sep-09 00:01N 27°18' W 014°19'713.9
2017-Sep-08 23:30N 27°23' W 014°13'714.0
2017-Sep-08 23:00N 27°29' W 014°08'714.1
2017-Sep-08 22:30N 27°34' W 014°03'714.3
2017-Sep-08 22:00N 27°39' W 013°58'714.4
2017-Sep-08 21:30N 27°45' W 013°52'714.5
2017-Sep-08 21:00N 27°50' W 013°47'714.4
2017-Sep-08 20:30N 27°56' W 013°42'714.6
2017-Sep-08 20:00N 28°02' W 013°37'714.5
2017-Sep-08 19:30N 28°08' W 013°32'714.2
2017-Sep-08 19:00N 28°13' W 013°28'714.2
2017-Sep-08 18:30N 28°19' W 013°23'714.1
2017-Sep-08 17:59N 28°26' W 013°19'713.7
2017-Sep-08 17:30N 28°31' W 013°14'714.2
2017-Sep-08 17:01N 28°37' W 013°10'814.6
2017-Sep-08 16:27N 28°43' W 013°05'614.3
2017-Sep-08 16:01N 28°49' W 013°01'714.2
2017-Sep-08 15:30N 28°55' W 012°56'713.9
2017-Sep-08 15:00N 29°00' W 012°52'713.7
2017-Sep-08 14:30N 29°06' W 012°47'713.8
2017-Sep-08 14:00N 29°12' W 012°43'713.6
2017-Sep-08 13:30N 29°17' W 012°38'713.5
2017-Sep-08 13:00N 29°23' W 012°34'813.7
2017-Sep-08 12:26N 29°29' W 012°29'6113.7
2017-Sep-08 07:57N 30°20' W 011°49'713.6
2017-Sep-08 07:28N 30°26' W 011°45'714.2
2017-Sep-08 07:00N 30°31' W 011°41'2714.2
2017-Sep-08 05:07N 30°53' W 011°23'213.9
2017-Sep-08 05:00N 30°55' W 011°22'1113.9
2017-Sep-08 04:14N 31°04' W 011°15'313.9
2017-Sep-08 04:00N 31°06' W 011°13'714.0
2017-Sep-08 03:29N 31°12' W 011°08'813.7
2017-Sep-08 02:56N 31°19' W 011°03'613.8
2017-Sep-08 02:30N 31°23' W 010°59'813.8
2017-Sep-08 01:55N 31°30' W 010°54'1114.1
2017-Sep-08 01:09N 31°39' W 010°47'314.2
2017-Sep-08 00:57N 31°41' W 010°45'614.3
2017-Sep-08 00:30N 31°47' W 010°41'814.2
2017-Sep-07 23:56N 31°53' W 010°35'614.3
2017-Sep-07 23:30N 31°59' W 010°31'2814.4
2017-Sep-07 21:34N 32°19' W 010°09'114.8
2017-Sep-07 21:31N 32°20' W 010°09'1214.6
2017-Sep-07 20:42N 32°29' W 009°59'314.8
2017-Sep-07 20:29N 32°31' W 009°57'2714.9
2017-Sep-07 18:39N 32°52' W 009°35'214.8
2017-Sep-07 18:30N 32°53' W 009°33'814.9
2017-Sep-07 18:00N 32°59' W 009°27'815.1
2017-Sep-07 17:30N 33°04' W 009°21'714.9
2017-Sep-07 17:00N 33°10' W 009°15'814.7
2017-Sep-07 16:29N 33°16' W 009°09'21014.1
2017-Sep-07 01:34N 35°52' W 006°19'1413.3
2017-Sep-07 00:29N 35°57' W 006°03'715.5
2017-Sep-07 00:00N 35°57' W 005°53'816.3
2017-Sep-06 23:30N 35°57' W 005°43'815.2
2017-Sep-06 23:00N 35°58' W 005°34'713.2
2017-Sep-06 22:30N 35°60' W 005°26'611.1
2017-Sep-06 22:00N 36°05' W 005°23'3 5.9
2017-Sep-06 21:30N 36°08' W 005°22'0 0.5
2017-Sep-06 20:55N 36°08' W 005°22'0 0.3
2017-Sep-06 20:28N 36°08' W 005°22'0 0.1
2017-Sep-06 19:58N 36°08' W 005°22'0 0.0
2017-Sep-06 19:22N 36°08' W 005°22'0 0.0
2017-Sep-06 17:19N 36°08' W 005°22'0 0.0
2017-Sep-06 16:58N 36°08' W 005°22'0 0.0
2017-Sep-06 16:19N 36°08' W 005°22'0 0.0
2017-Sep-06 15:07N 36°08' W 005°22'0 0.3
2017-Sep-06 14:58N 36°08' W 005°22'0 0.0
2017-Sep-06 13:49N 36°08' W 005°22'0 0.1
2017-Sep-06 13:25N 36°08' W 005°22'0 0.2
2017-Sep-06 11:37N 36°08' W 005°22'0 0.0
2017-Sep-06 11:13N 36°08' W 005°22'0 0.1
2017-Sep-06 10:55N 36°08' W 005°22'0 0.3
2017-Sep-06 10:19N 36°08' W 005°22'0 0.1
2017-Sep-06 09:34N 36°08' W 005°22'0 0.1
2017-Sep-06 09:28N 36°08' W 005°22'0 0.1
2017-Sep-06 08:13N 36°08' W 005°22'0 0.0
2017-Sep-06 07:28N 36°08' W 005°22'2 2.7
2017-Sep-06 06:47N 36°06' W 005°22'2 6.3
2017-Sep-06 06:30N 36°05' W 005°20'4 7.9
2017-Sep-06 06:00N 36°06' W 005°15'3 6.9
2017-Sep-06 05:30N 36°07' W 005°11'0 0.1
2017-Sep-06 05:00N 36°07' W 005°11'0 0.1
2017-Sep-06 04:27N 36°07' W 005°11'0 0.4
2017-Sep-06 04:00N 36°07' W 005°11'0 0.6
2017-Sep-06 03:30N 36°07' W 005°11'0 0.6
2017-Sep-06 02:58N 36°08' W 005°11'1 2.1
2017-Sep-06 02:29N 36°07' W 005°12'3 6.3
2017-Sep-06 02:00N 36°06' W 005°08'25813.3
2017-Sep-05 06:34N 36°41' E 000°09'313.9
2017-Sep-05 06:20N 36°41' E 000°13'413.9
2017-Sep-05 06:00N 36°42' E 000°19'714.0
2017-Sep-05 05:30N 36°43' E 000°27'714.1
2017-Sep-05 05:00N 36°44' E 000°36'714.0
2017-Sep-05 04:29N 36°46' E 000°45'714.3
2017-Sep-05 04:01N 36°48' E 000°53'914.2
2017-Sep-05 03:22N 36°50' E 001°04'714.5
2017-Sep-05 02:54N 36°51' E 001°12'615.1
2017-Sep-05 02:30N 36°52' E 001°20'1114.6
2017-Sep-05 01:44N 36°54' E 001°34'514.5
2017-Sep-05 01:25N 36°55' E 001°39'2414.3
2017-Sep-04 23:44N 37°00' E 002°09'314.1
2017-Sep-04 23:30N 37°01' E 002°13'713.8
2017-Sep-04 23:00N 37°02' E 002°21'1013.8
2017-Sep-04 22:17N 37°04' E 002°33'1113.5
2017-Sep-04 21:29N 37°07' E 002°46'6113.7
2017-Sep-04 17:01N 37°14' E 004°03'114.7
2017-Sep-04 16:59N 37°14' E 004°03'714.6
2017-Sep-04 16:30N 37°15' E 004°12'714.5
2017-Sep-04 16:00N 37°16' E 004°21'714.2
2017-Sep-04 15:30N 37°17' E 004°30'714.1
2017-Sep-04 15:00N 37°17' E 004°39'814.2
2017-Sep-04 14:28N 37°18' E 004°48'714.4
2017-Sep-04 14:00N 37°19' E 004°57'2714.3
2017-Sep-04 12:06N 37°22' E 005°31'314.5
2017-Sep-04 11:52N 37°23' E 005°35'37713.0
2017-Sep-03 06:49N 36°45' E 013°24'412.4
2017-Sep-03 06:30N 36°43' E 013°29'612.5
2017-Sep-03 06:00N 36°41' E 013°36'612.5
2017-Sep-03 05:30N 36°39' E 013°44'612.6
2017-Sep-03 05:00N 36°37' E 013°51'612.6
2017-Sep-03 04:30N 36°35' E 013°59'612.5
2017-Sep-03 04:00N 36°34' E 014°06'612.5
2017-Sep-03 03:30N 36°33' E 014°14'612.4
2017-Sep-03 03:00N 36°31' E 014°21'612.4
2017-Sep-03 02:30N 36°29' E 014°28'612.5
2017-Sep-03 02:00N 36°28' E 014°36'612.7
2017-Sep-03 01:30N 36°27' E 014°44'1513.3
2017-Sep-03 00:20N 36°27' E 015°03'513.8
2017-Sep-03 00:00N 36°26' E 015°09'713.9
2017-Sep-02 23:30N 36°26' E 015°17'8213.9
2017-Sep-02 17:38N 36°21' E 016°59'213.4
2017-Sep-02 17:30N 36°21' E 017°01'3113.7
2017-Sep-02 15:14N 36°19' E 017°39'1013.9
2017-Sep-02 14:30N 36°18' E 017°52'713.7
2017-Sep-02 14:00N 36°18' E 018°00'713.5
2017-Sep-02 13:30N 36°17' E 018°09'713.5
2017-Sep-02 13:00N 36°17' E 018°17'713.7
2017-Sep-02 12:30N 36°17' E 018°26'713.8
2017-Sep-02 12:00N 36°16' E 018°34'713.8
2017-Sep-02 11:28N 36°16' E 018°43'714.0
2017-Sep-02 11:01N 36°15' E 018°51'1214.3
2017-Sep-02 10:11N 36°15' E 019°06'314.5
2017-Sep-02 09:58N 36°14' E 019°10'1214.5
2017-Sep-02 09:09N 36°14' E 019°24'414.2
2017-Sep-02 08:52N 36°13' E 019°29'714.2
2017-Sep-02 08:24N 36°12' E 019°38'614.1
2017-Sep-02 08:00N 36°12' E 019°44'713.9
2017-Sep-02 07:30N 36°12' E 019°53'713.9
2017-Sep-02 07:00N 36°12' E 020°02'814.0
2017-Sep-02 06:27N 36°11' E 020°11'  

Dump ship's entire track history